PWSweather.com
Personal Weather Stations
Station Observations
KVAGLENALL
West Henrico, Glen Allen, VA 23060-6503

West HenricoGlen Allen, VA 23060-6503

Lat: 37.6554, Lon: -77.5693

Elevation: 273

Station Type: Davis Vantage Pro II

www.glenallenweather.com

High Low Average
Temperature 57.1°F13.9°C 36.3°F2.4°C 45.3°F7.4°C
Dew Point 44.5°F6.9°C 32.5°F0.3°C 37.9°F3.3°C
Winds 10.0 mph 16.1 kmh Calm Calm 2.0 mph SW3.2 kmh SW
Wind Gusts 14.1 mph22.7 kmh -- 6.0 mph9.7 kmh
Humidity 98% 51% 78%
Pressure 29.79 in1008.8 mb 29.49 in998.6 mb -
Precipitation 0.00 in0.0 mm - -
Hour Temp Dew Point Humidity Winds Wind Gusts Pressure Precip Precip Rate Daily Precip Total
12:30 AM 42.9°F6.1°C 42.1°F5.6°C 97% 2.0 mph N3.2 kmh N 4.0 mph6.4 kmh 29.53 in1000.0 mb 0.25 in6.4 mm 0.50 in12.7 mm 0.25 in6.4 mm
01:30 AM 40.6°F4.8°C 39.8°F4.3°C 97% 3.0 mph NE4.8 kmh NE 10.1 mph16.3 kmh 29.53 in1000.0 mb 0.09 in2.3 mm 0.00 in0.0 mm 0.25 in6.4 mm
02:30 AM 39.1°F3.9°C 38.1°F3.4°C 96% 2.0 mph N3.2 kmh N 2.0 mph3.2 kmh 29.49 in998.6 mb 0.01 in0.3 mm 0.00 in0.0 mm 0.25 in6.4 mm
03:30 AM 38.5°F3.6°C 37.7°F3.2°C 97% Calm Calm 2.0 mph3.2 kmh 29.49 in998.6 mb 0.00 in0.0 mm 0.00 in0.0 mm 0.25 in6.4 mm
04:30 AM 38.6°F3.7°C 37.8°F3.2°C 97% 3.0 mph WSW4.8 kmh WSW 8.1 mph13.0 kmh 29.50 in999.0 mb 0.00 in0.0 mm 0.00 in0.0 mm 0.25 in6.4 mm
05:30 AM 39.0°F3.9°C 38.2°F3.4°C 97% 2.0 mph W3.2 kmh W 7.1 mph11.4 kmh 29.51 in999.3 mb 0.00 in0.0 mm 0.00 in0.0 mm 0.25 in6.4 mm
06:30 AM 39.4°F4.1°C 38.6°F3.7°C 97% 1.0 mph W1.6 kmh W 2.0 mph3.2 kmh 29.52 in999.7 mb 0.00 in0.0 mm 0.00 in0.0 mm 0.25 in6.4 mm
07:30 AM 39.8°F4.3°C 39.3°F4.1°C 98% Calm Calm 4.0 mph6.4 kmh 29.55 in1000.7 mb 0.02 in0.5 mm 0.00 in0.0 mm 0.27 in6.9 mm
08:30 AM 44.4°F6.9°C 43.4°F6.3°C 96% 1.0 mph SW1.6 kmh SW 7.1 mph11.4 kmh 29.58 in1001.7 mb 0.02 in0.5 mm 0.00 in0.0 mm 0.27 in6.9 mm
09:30 AM 48.8°F9.3°C 44.5°F6.9°C 85% 2.0 mph W3.2 kmh W 3.0 mph4.8 kmh 29.62 in1003.0 mb 0.00 in0.0 mm 0.00 in0.0 mm 0.27 in6.9 mm
10:30 AM 52.6°F11.4°C 40.8°F4.9°C 64% 2.0 mph NW3.2 kmh NW 12.1 mph19.5 kmh 29.63 in1003.4 mb 0.00 in0.0 mm 0.00 in0.0 mm 0.27 in6.9 mm
11:30 AM 55.0°F12.8°C 40.5°F4.7°C 58% 10.0 mph NNE16.1 kmh NNE 10.1 mph16.3 kmh 29.63 in1003.4 mb 0.00 in0.0 mm 0.00 in0.0 mm 0.27 in6.9 mm
12:30 PM 56.1°F13.4°C 40.6°F4.8°C 56% 4.0 mph NW6.4 kmh NW 11.1 mph17.9 kmh 29.63 in1003.4 mb 0.00 in0.0 mm 0.00 in0.0 mm 0.27 in6.9 mm
01:30 PM 57.1°F13.9°C 40.1°F4.5°C 53% 5.0 mph WSW8.0 kmh WSW 14.1 mph22.7 kmh 29.63 in1003.4 mb 0.00 in0.0 mm 0.00 in0.0 mm 0.27 in6.9 mm
02:30 PM 56.1°F13.4°C 38.2°F3.4°C 51% 5.0 mph NNW8.0 kmh NNW 9.1 mph14.6 kmh 29.63 in1003.4 mb 0.00 in0.0 mm 0.00 in0.0 mm 0.27 in6.9 mm
03:30 PM 54.5°F12.5°C 37.7°F3.2°C 53% 1.0 mph SSW1.6 kmh SSW 2.0 mph3.2 kmh 29.65 in1004.1 mb 0.00 in0.0 mm 0.00 in0.0 mm 0.27 in6.9 mm
04:30 PM 51.9°F11.1°C 35.8°F2.1°C 54% 2.0 mph NNW3.2 kmh NNW 8.1 mph13.0 kmh 29.67 in1004.7 mb 0.00 in0.0 mm 0.00 in0.0 mm 0.27 in6.9 mm
05:30 PM 46.9°F8.3°C 35.8°F2.1°C 65% 2.0 mph SW3.2 kmh SW 3.0 mph4.8 kmh 29.68 in1005.1 mb 0.00 in0.0 mm 0.00 in0.0 mm 0.27 in6.9 mm
06:30 PM 45.6°F7.6°C 34.2°F1.2°C 64% 3.0 mph SSW4.8 kmh SSW 4.0 mph6.4 kmh 29.70 in1005.8 mb 0.00 in0.0 mm 0.00 in0.0 mm 0.27 in6.9 mm
07:30 PM 44.0°F6.7°C 34.2°F1.2°C 68% 5.0 mph SW8.0 kmh SW 7.1 mph11.4 kmh 29.73 in1006.8 mb 0.00 in0.0 mm 0.00 in0.0 mm 0.27 in6.9 mm
08:30 PM 42.2°F5.7°C 33.8°F1.0°C 72% 1.0 mph SW1.6 kmh SW 2.0 mph3.2 kmh 29.76 in1007.8 mb 0.00 in0.0 mm 0.00 in0.0 mm 0.27 in6.9 mm
09:30 PM 40.1°F4.5°C 34.1°F1.2°C 79% 1.0 mph WSW1.6 kmh WSW 2.0 mph3.2 kmh 29.77 in1008.1 mb 0.00 in0.0 mm 0.00 in0.0 mm 0.27 in6.9 mm
10:30 PM 37.6°F3.1°C 32.9°F0.5°C 83% Calm Calm -- 29.78 in1008.5 mb 0.00 in0.0 mm 0.00 in0.0 mm 0.27 in6.9 mm
11:30 PM 36.3°F2.4°C 32.5°F0.3°C 86% Calm Calm 1.0 mph1.6 kmh 29.79 in1008.8 mb 0.00 in0.0 mm 0.00 in0.0 mm 0.27 in6.9 mm